logo
Search for airport 
image banner adimage banner adimage banner ad
image banner ad

SNRS - Fazenda Canoeiro

Located in Cocalinho, Brazil

ICAO - SNRS, IATA -

Data provided by Airmate  

General information

Coordinates: S13°3'8" W50°49'57"
Elevation is 711 feet MSL.
Magnetic variation is -21° East
View others Airports in Ceará

Operational data

Special qualification required
Current time UTC:
Current local time:
Weather at : - ( 0 km )
METAR: K40B 131616Z AUTO VRB06G25KT 13/06 A2939 RMK AO1 PK WND 14025/1605 SLP956 T01320065 58013
View NOTAMs / SUP AIP / TFR affecting this airport [VIEW]
Communications frequencies: [VIEW]

Runways:

RWY identifierQFULength (ft)Width (ft)SurfaceLDA (ft)
25295359GRAVEL
07295359GRAVEL

Airport contact information

Address: Cocalinho Brazil

Satellite view of SNRS